Tralafiti — DJ3345 — position and weather

sailwx.info

Track history (hours):
 
Tides and Currents Weather Stations Pressure Air Temp Water Temp Dewpoint Dewpoint Depression Visibility Wind Speed Wind Dir Waves Ship Positions

Tralafiti

Last reported at 2014-Mar-06 16:27 UTC. Time now 2014-Oct-01 18:31 UTC.
Position N 17°37' W 062°58'.
Warning: this ship's position is months out of date.

Length 12 m.

Type: Sailing vessel. MMSI: 211445980.

Date/timePositionNaut miles runAvg speedWind from/ knotsBaromVisibWave heightAir tempDewpointWater temp
2014-Mar-06 16:27N 17°37' W 062°58'5 5.6
2014-Mar-06 15:33N 17°42' W 063°00'5 5.2
2014-Mar-06 14:33N 17°46' W 063°02'6 5.7
2014-Mar-06 13:28N 17°52' W 063°05'5 5.4
2014-Mar-06 12:33N 17°57' W 063°06'5 5.2
2014-Mar-06 11:32N 18°02' W 063°08'3 3.2
2014-Mar-06 10:32N 18°05' W 063°07'2 0.3
2014-Mar-06 02:04N 18°04' W 063°05'  
2014-Mar-03 18:11N 18°04' W 063°06'0 0.0
2014-Mar-03 17:31N 18°04' W 063°06'1 0.5
2014-Mar-03 16:33N 18°04' W 063°06'  
Track history (hours):
 
Tides and Currents Weather Stations Pressure Air Temp Water Temp Dewpoint Dewpoint Depression Visibility Wind Speed Wind Dir Waves Ship Positions

Tralafiti

Last reported at 2014-Mar-06 16:27 UTC. Time now 2014-Oct-01 18:31 UTC.
Position N 17°37' W 062°58'.
Warning: this ship's position is months out of date.

Length 12 m.

Type: Sailing vessel. MMSI: 211445980.

Date/timePositionNaut miles runAvg speedWind from/ knotsBaromVisibWave heightAir tempDewpointWater temp
2014-Mar-06 16:27N 17°37' W 062°58'5 5.6
2014-Mar-06 15:33N 17°42' W 063°00'5 5.2
2014-Mar-06 14:33N 17°46' W 063°02'6 5.7
2014-Mar-06 13:28N 17°52' W 063°05'5 5.4
2014-Mar-06 12:33N 17°57' W 063°06'5 5.2
2014-Mar-06 11:32N 18°02' W 063°08'3 3.2
2014-Mar-06 10:32N 18°05' W 063°07'2 0.3
2014-Mar-06 02:04N 18°04' W 063°05'  
2014-Mar-03 18:11N 18°04' W 063°06'0 0.0
2014-Mar-03 17:31N 18°04' W 063°06'1 0.5
2014-Mar-03 16:33N 18°04' W 063°06'  

Dump ship's entire track history